Time;durP1;ratioP1;P1;durP2;ratioP2;P2;SDS_P1;SDS_P2;PMS_P1;PMS_P2;Temp;Humidity;BMP_temperature;BMP_pressure;BME280_temperature;BME280_humidity;BME280_pressure;Samples;Min_cycle;Max_cycle;Signal;HPM_P1;HPM_P2
2022/06/23 00:01:28;;;;;;;15.00;6.20;;;;;;;18.27;77.87;101390.97;5043903;28;20021;-64
2022/06/23 00:03:54;;;;;;;13.05;6.72;;;;;;;18.20;78.30;101390.47;5028064;28;20499;-64
2022/06/23 00:06:57;;;;;;;12.48;6.78;;;;;;;18.15;78.88;101390.72;5022459;28;20562;-63
2022/06/23 00:09:35;;;;;;;16.42;6.75;;;;;;;18.09;79.14;101392.84;5038315;28;20060;-64
2022/06/23 00:12:18;;;;;;;15.88;7.70;;;;;;;18.02;79.28;101390.53;5043713;28;20495;-66
2022/06/23 00:14:49;;;;;;;12.80;6.72;;;;;;;17.99;79.40;101382.72;5042766;28;20048;-65
2022/06/23 00:17:42;;;;;;;13.40;6.43;;;;;;;17.97;79.23;101381.94;5043438;28;20480;-67
2022/06/23 00:20:21;;;;;;;16.38;7.15;;;;;;;17.94;79.31;101382.97;5004691;28;20057;-64
2022/06/23 00:22:51;;;;;;;10.88;6.22;;;;;;;17.83;79.60;101379.19;5002329;28;20350;-65
2022/06/23 00:25:50;;;;;;;16.65;6.88;;;;;;;17.77;80.07;101381.28;5026498;28;20034;-64
2022/06/23 00:28:15;;;;;;;13.05;7.50;;;;;;;17.70;79.75;101379.03;5021425;28;20072;-66
2022/06/23 00:30:41;;;;;;;10.27;5.88;;;;;;;17.77;79.74;101367.94;5040722;28;20040;-64
2022/06/23 00:33:19;;;;;;;13.70;7.13;;;;;;;17.63;80.20;101374.03;5041504;28;20104;-63
2022/06/23 00:35:49;;;;;;;11.50;6.80;;;;;;;17.61;80.39;101365.25;5010288;28;20042;-64
2022/06/23 00:38:25;;;;;;;12.30;6.82;;;;;;;17.71;80.14;101359.41;5002292;28;20487;-65
2022/06/23 00:40:50;;;;;;;15.23;7.53;;;;;;;17.69;80.54;101362.16;5033426;28;20029;-65
2022/06/23 00:43:17;;;;;;;14.38;6.88;;;;;;;17.65;80.53;101364.16;5040492;28;20036;-64
2022/06/23 00:45:54;;;;;;;13.48;7.22;;;;;;;17.61;80.21;101362.59;5030164;28;20460;-65
2022/06/23 00:48:36;;;;;;;12.13;7.20;;;;;;;17.53;80.91;101362.16;5030668;28;20028;-63
2022/06/23 00:51:01;;;;;;;13.57;7.03;;;;;;;17.54;81.11;101370.06;5040681;28;20029;-65
2022/06/23 00:53:35;;;;;;;12.63;6.60;;;;;;;17.58;80.86;101364.59;5042493;28;20103;-64
2022/06/23 00:56:07;;;;;;;24.40;8.23;;;;;;;17.34;81.74;101362.31;5042702;28;20104;-65
2022/06/23 00:58:38;;;;;;;13.32;8.02;;;;;;;17.27;81.84;101357.31;5040143;28;20128;-66
2022/06/23 01:01:21;;;;;;;12.73;7.18;;;;;;;17.37;81.37;101363.00;5043429;28;20395;-64
2022/06/23 01:04:17;;;;;;;14.07;7.00;;;;;;;17.40;81.41;101362.84;5033124;28;20045;-64
2022/06/23 01:06:48;;;;;;;15.93;8.02;;;;;;;17.32;81.61;101354.41;5021986;28;20105;-64
2022/06/23 01:09:28;;;;;;;15.48;7.95;;;;;;;17.28;81.83;101356.38;5032382;28;20596;-64
2022/06/23 01:12:00;;;;;;;15.48;7.57;;;;;;;17.17;82.26;101353.44;5039729;22;20091;-65
2022/06/23 01:14:39;;;;;;;12.25;7.40;;;;;;;17.22;82.31;101348.69;5014158;28;20352;-65
2022/06/23 01:17:30;;;;;;;;;;;;;;;17.15;82.52;101352.66;5023704;28;20399;-64
2022/06/23 01:20:05;;;;;;;12.45;6.97;;;;;;;17.08;82.75;101349.47;5018432;28;19995;-65
2022/06/23 01:22:49;;;;;;;12.85;6.70;;;;;;;17.15;82.40;101357.97;5026268;28;20048;-64
2022/06/23 01:25:50;;;;;;;15.15;8.07;;;;;;;17.10;82.42;101352.06;5026228;28;20076;-64
2022/06/23 01:28:17;;;;;;;20.00;8.70;;;;;;;16.99;82.98;101349.91;5024199;28;21096;-65
2022/06/23 01:31:12;;;;;;;14.10;8.07;;;;;;;17.04;82.86;101353.22;5021050;28;20018;-64
2022/06/23 01:33:43;;;;;;;17.08;7.28;;;;;;;17.06;82.83;101361.97;5024290;28;20030;-64
2022/06/23 01:36:14;;;;;;;15.25;8.40;;;;;;;17.03;82.84;101355.00;5009504;28;20034;-64
2022/06/23 01:39:03;;;;;;;12.07;7.40;;;;;;;17.01;83.40;101356.88;5006324;28;20029;-64
2022/06/23 01:41:53;;;;;;;11.15;8.27;;;;;;;17.02;83.05;101361.28;5024412;28;20091;-64
2022/06/23 01:44:27;;;;;;;14.55;8.10;;;;;;;16.98;83.13;101361.50;5023857;28;20025;-64
2022/06/23 01:46:55;;;;;;;15.82;7.32;;;;;;;16.96;83.44;101366.03;4987426;28;20038;-64
2022/06/23 01:49:28;;;;;;;14.95;7.93;;;;;;;16.91;83.49;101367.16;4992244;28;20413;-64
2022/06/23 01:51:56;;;;;;;20.42;7.53;;;;;;;16.93;83.55;101359.97;5004655;28;20021;-66
2022/06/23 01:54:21;;;;;;;15.98;8.18;;;;;;;16.88;83.72;101364.66;5004116;28;20524;-64
2022/06/23 01:57:11;;;;;;;12.38;8.20;;;;;;;16.87;83.67;101364.72;5006295;28;20026;-64
2022/06/23 01:59:43;;;;;;;15.38;8.57;;;;;;;16.82;83.84;101362.31;5012683;28;20538;-65
2022/06/23 02:02:15;;;;;;;13.30;7.97;;;;;;;16.79;83.58;101363.34;5025857;28;20014;-65
2022/06/23 02:04:58;;;;;;;16.70;7.50;;;;;;;16.80;83.80;101356.22;5025221;28;20048;-65
2022/06/23 02:07:34;;;;;;;15.15;7.82;;;;;;;16.72;84.08;101359.28;5024638;28;20032;-65
2022/06/23 02:10:13;;;;;;;17.38;8.13;;;;;;;16.75;84.12;101350.25;5016436;28;20037;-64
2022/06/23 02:13:20;;;;;;;13.32;7.93;;;;;;;16.75;84.23;101350.25;5006518;28;20385;-64
2022/06/23 02:16:00;;;;;;;18.30;9.40;;;;;;;16.67;84.09;101348.88;5010659;28;20130;-64
2022/06/23 02:18:34;;;;;;;21.60;8.02;;;;;;;16.72;83.93;101356.63;5025526;28;20026;-65
2022/06/23 02:21:39;;;;;;;13.80;8.90;;;;;;;16.68;84.40;101339.94;5007396;28;20033;-65
2022/06/23 02:24:25;;;;;;;12.95;7.53;;;;;;;16.73;84.17;101346.81;5024998;28;20054;-64
2022/06/23 02:27:06;;;;;;;15.32;8.27;;;;;;;16.78;83.78;101347.44;5002070;28;20130;-66
2022/06/23 02:29:39;;;;;;;15.85;7.95;;;;;;;16.77;83.42;101348.41;4984684;28;20033;-67
2022/06/23 02:32:18;;;;;;;12.75;8.65;;;;;;;16.71;84.00;101348.72;5007276;28;20138;-65
2022/06/23 02:34:48;;;;;;;11.85;8.35;;;;;;;16.65;83.98;101345.41;5004790;28;20084;-65
2022/06/23 02:37:51;;;;;;;14.25;8.05;;;;;;;16.72;83.76;101345.97;4985375;28;20266;-65
2022/06/23 02:40:25;;;;;;;14.27;7.55;;;;;;;16.78;83.78;101336.81;4994792;28;20025;-64
2022/06/23 02:42:56;;;;;;;10.85;7.93;;;;;;;16.79;83.15;101338.50;5024141;28;20417;-65
2022/06/23 02:45:51;;;;;;;13.23;8.95;;;;;;;16.73;83.60;101347.69;5018466;28;20028;-64
2022/06/23 02:48:23;;;;;;;11.30;8.57;;;;;;;16.58;84.03;101344.00;5004149;28;20073;-64
2022/06/23 02:51:13;;;;;;;14.27;8.57;;;;;;;16.66;83.94;101344.50;5008608;28;20477;-64
2022/06/23 02:53:47;;;;;;;18.10;8.45;;;;;;;16.73;83.27;101353.00;5026067;28;20082;-65
2022/06/23 02:56:38;;;;;;;14.68;9.07;;;;;;;16.64;83.95;101338.38;5024065;28;20022;-64
2022/06/23 02:59:35;;;;;;;12.18;8.82;;;;;;;16.72;83.31;101330.00;5000405;28;20030;-65
2022/06/23 03:02:08;;;;;;;12.60;8.23;;;;;;;16.70;83.11;101336.34;4983412;28;20061;-65
2022/06/23 03:04:43;;;;;;;16.33;8.75;;;;;;;16.62;83.64;101329.59;5007815;28;20025;-66
2022/06/23 03:07:12;;;;;;;15.90;9.02;;;;;;;16.57;84.14;101331.66;5024065;28;20402;-66
2022/06/23 03:09:44;;;;;;;12.55;8.52;;;;;;;16.66;83.40;101309.91;5025314;28;20036;-66
2022/06/23 03:12:13;;;;;;;12.23;8.63;;;;;;;16.71;83.33;101320.31;5018926;28;20531;-65
2022/06/23 03:15:05;;;;;;;14.45;7.60;;;;;;;16.76;83.01;101314.72;5003262;28;20041;-66
2022/06/23 03:17:48;;;;;;;13.55;9.38;;;;;;;16.61;83.44;101311.94;5004510;28;20090;-64
2022/06/23 03:20:31;;;;;;;15.48;8.27;;;;;;;16.65;83.46;101300.19;5004688;28;20204;-64
2022/06/23 03:23:12;;;;;;;14.75;8.00;;;;;;;16.67;83.45;101308.09;5012753;28;20168;-65
2022/06/23 03:25:47;;;;;;;13.82;9.10;;;;;;;16.66;83.27;101306.38;5024107;28;20036;-64
2022/06/23 03:28:19;;;;;;;19.15;9.30;;;;;;;16.70;83.11;101313.25;5023792;28;20113;-64
2022/06/23 03:30:54;;;;;;;18.15;9.20;;;;;;;16.52;83.99;101310.63;5025146;28;20033;-66
2022/06/23 03:33:37;;;;;;;13.20;8.63;;;;;;;16.66;83.61;101301.06;5023872;28;20475;-64
2022/06/23 03:36:24;;;;;;;11.85;7.68;;;;;;;16.71;83.17;101300.81;5022597;28;20494;-65
2022/06/23 03:42:03;;;;;;;14.57;9.23;;;;;;;16.56;83.75;101298.03;5021793;28;20088;-65
2022/06/23 03:44:34;;;;;;;16.40;8.65;;;;;;;16.59;83.84;101294.34;5022601;28;20066;-66
2022/06/23 03:47:06;;;;;;;14.35;8.20;;;;;;;16.73;83.11;101288.28;5021773;28;20030;-66
2022/06/23 03:49:41;;;;;;;12.32;7.90;;;;;;;16.76;83.17;101280.13;5006229;28;20045;-67
2022/06/23 03:52:38;;;;;;;13.82;8.45;;;;;;;16.84;82.33;101275.28;5021747;28;20021;-65
2022/06/23 03:55:16;;;;;;;14.25;8.00;;;;;;;16.88;82.25;101287.47;5017320;28;20044;-65
2022/06/23 03:57:53;;;;;;;14.65;8.57;;;;;;;16.97;81.89;101282.56;5022692;28;20117;-65
2022/06/23 04:00:22;;;;;;;13.20;8.32;;;;;;;16.90;81.81;101282.06;5023253;28;20036;-65
2022/06/23 04:02:50;;;;;;;;;;;;;;;17.03;81.66;101290.25;5023877;28;20036;-66
2022/06/23 04:05:29;;;;;;;15.93;7.87;;;;;;;17.07;81.23;101277.66;5022385;28;19936;-65
2022/06/23 04:08:04;;;;;;;16.67;8.23;;;;;;;16.97;81.20;101279.91;5023662;28;20036;-65
2022/06/23 04:10:30;;;;;;;12.20;7.65;;;;;;;16.90;82.19;101274.09;5023367;28;20053;-65
2022/06/23 04:12:59;;;;;;;14.25;8.07;;;;;;;16.83;82.01;101270.91;5021731;28;20038;-65
2022/06/23 04:15:31;;;;;;;12.38;8.27;;;;;;;16.80;82.35;101271.06;5024114;28;20025;-66
2022/06/23 04:18:29;;;;;;;12.48;8.13;;;;;;;16.99;81.25;101268.28;5013573;28;20030;-65
2022/06/23 04:20:58;;;;;;;15.27;7.80;;;;;;;17.04;80.84;101281.34;4970921;28;20046;-65
2022/06/23 04:23:32;;;;;;;16.80;7.97;;;;;;;17.15;80.69;101281.63;5014272;28;20014;-65
2022/06/23 04:26:13;;;;;;;13.65;8.38;;;;;;;17.24;80.28;101271.41;5023893;28;20040;-66
2022/06/23 04:28:50;;;;;;;15.40;8.15;;;;;;;17.15;80.28;101264.78;5022163;28;20034;-66
2022/06/23 04:31:21;;;;;;;12.95;8.10;;;;;;;17.16;80.54;101258.53;5021858;28;20025;-64
2022/06/23 04:33:47;;;;;;;10.18;8.18;;;;;;;17.20;80.22;101259.19;5022161;28;20075;-66
2022/06/23 04:36:25;;;;;;;8.70;7.40;;;;;;;17.33;79.81;101265.56;5022026;28;20041;-65
2022/06/23 04:38:58;;;;;;;16.55;8.57;;;;;;;17.16;80.53;101266.53;5019734;28;20048;-66
2022/06/23 04:41:30;;;;;;;15.98;8.18;;;;;;;17.10;80.67;101259.69;5022071;28;20603;-65
2022/06/23 04:44:02;;;;;;;15.77;8.68;;;;;;;17.19;80.10;101261.03;5020001;28;20033;-65
2022/06/23 04:46:38;;;;;;;15.25;8.13;;;;;;;17.15;80.41;101265.66;5022603;28;20063;-64
2022/06/23 04:49:06;;;;;;;13.55;8.10;;;;;;;17.34;79.93;101266.44;5016345;28;20121;-65
2022/06/23 04:51:38;;;;;;;10.63;7.60;;;;;;;17.52;79.17;101277.88;5003350;28;20044;-67
2022/06/23 04:54:09;;;;;;;16.08;7.47;;;;;;;17.70;78.60;101275.94;5001819;28;20237;-65
2022/06/23 04:56:42;;;;;;;14.75;8.27;;;;;;;17.74;77.89;101280.16;5006901;28;20049;-65
2022/06/23 04:59:24;;;;;;;12.75;6.82;;;;;;;17.82;77.95;101282.38;5005072;28;20030;-65
2022/06/23 05:01:51;;;;;;;11.38;7.40;;;;;;;17.74;77.83;101276.63;5019002;28;20022;-65
2022/06/23 05:04:23;;;;;;;13.25;7.70;;;;;;;17.79;77.84;101271.91;5026233;28;20033;-67
2022/06/23 05:06:51;;;;;;;13.00;8.45;;;;;;;17.60;78.35;101262.28;5025835;28;20183;-65
2022/06/23 05:09:32;;;;;;;10.82;7.72;;;;;;;17.61;78.42;101264.00;5027455;28;20021;-67
2022/06/23 05:12:04;;;;;;;16.23;7.45;;;;;;;17.83;77.30;101277.91;5024930;28;20045;-66
2022/06/23 05:14:34;;;;;;;10.88;7.10;;;;;;;17.99;77.16;101284.06;5025441;28;20021;-66
2022/06/23 05:17:12;;;;;;;11.65;7.55;;;;;;;18.14;76.09;101282.34;5026592;28;20026;-64
2022/06/23 05:19:39;;;;;;;16.48;7.40;;;;;;;18.27;76.07;101286.97;5009650;28;20133;-65
2022/06/23 05:22:36;;;;;;;10.57;7.10;;;;;;;18.25;76.13;101294.19;5006159;28;20017;-65
2022/06/23 05:25:32;;;;;;;14.93;7.47;;;;;;;18.13;76.34;101279.75;5006209;28;20527;-66
2022/06/23 05:27:58;;;;;;;10.85;6.82;;;;;;;18.13;76.57;101275.28;5005353;28;20113;-65
2022/06/23 05:30:28;;;;;;;13.45;7.18;;;;;;;18.30;76.04;101281.41;5006159;28;20096;-65
2022/06/23 05:32:57;;;;;;;13.73;6.90;;;;;;;18.59;75.34;101283.28;5005689;28;20091;-65
2022/06/23 05:35:28;;;;;;;12.20;6.72;;;;;;;18.62;74.59;101281.28;5005619;28;20068;-65
2022/06/23 05:38:19;;;;;;;14.15;6.93;;;;;;;18.67;74.33;101278.34;5014001;28;20033;-65
2022/06/23 05:40:52;;;;;;;10.48;7.85;;;;;;;18.85;73.49;101280.81;5026756;28;20060;-67
2022/06/23 05:43:18;;;;;;;16.52;7.47;;;;;;;18.70;73.60;101270.16;5023710;28;20100;-65
2022/06/23 05:45:50;;;;;;;11.73;6.55;;;;;;;18.87;73.54;101262.91;5025328;28;20030;-66
2022/06/23 05:48:20;;;;;;;10.20;6.38;;;;;;;19.09;72.92;101266.91;5026146;28;20029;-66
2022/06/23 05:50:56;;;;;;;11.95;6.70;;;;;;;19.10;72.80;101264.16;4987983;28;20021;-65
2022/06/23 05:53:29;;;;;;;13.32;7.18;;;;;;;19.19;72.45;101266.25;5004633;28;20121;-65
2022/06/23 05:55:59;;;;;;;13.30;6.95;;;;;;;19.23;72.09;101274.06;5025031;28;20037;-66
2022/06/23 05:58:31;;;;;;;14.10;5.80;;;;;;;19.39;71.58;101274.75;5024229;28;20033;-66
2022/06/23 06:01:08;;;;;;;15.65;7.50;;;;;;;19.33;72.24;101280.53;5025416;28;20032;-66
2022/06/23 06:03:39;;;;;;;15.02;7.07;;;;;;;19.38;71.78;101278.41;5025033;28;20021;-66
2022/06/23 06:06:06;;;;;;;12.65;6.75;;;;;;;19.53;71.17;101281.91;5023305;28;20116;-65
2022/06/23 06:09:35;;;;;;;13.93;7.28;;;;;;;19.61;70.64;101289.41;5025466;28;20441;-67
2022/06/23 06:11:20;;;;;;;11.60;5.57;;;;;;;19.74;70.47;101283.28;5025434;28;20099;-65
2022/06/23 06:13:45;;;;;;;11.50;6.90;;;;;;;19.81;70.52;101280.06;5025320;28;20029;-67
2022/06/23 06:16:10;;;;;;;17.88;6.82;;;;;;;19.94;69.16;101280.13;5025732;28;20123;-66
2022/06/23 06:18:38;;;;;;;9.98;7.38;;;;;;;19.92;69.31;101265.13;5024614;28;20028;-65
2022/06/23 06:21:06;;;;;;;15.27;7.55;;;;;;;19.74;69.48;101267.22;5023559;28;20072;-66
2022/06/23 06:23:43;;;;;;;12.65;7.50;;;;;;;19.96;69.12;101263.97;5024289;28;20030;-67
2022/06/23 06:26:15;;;;;;;9.10;5.68;;;;;;;20.15;69.28;101255.59;5023256;28;20744;-65
2022/06/23 06:28:40;;;;;;;17.75;6.47;;;;;;;20.29;68.74;101264.50;5021612;28;20032;-66
2022/06/23 06:31:12;;;;;;;12.75;6.63;;;;;;;20.26;68.83;101257.50;5023726;28;20013;-65
2022/06/23 06:34:09;;;;;;;13.15;6.10;;;;;;;20.42;68.17;101257.34;5023807;28;20034;-65
2022/06/23 06:36:43;;;;;;;13.02;6.13;;;;;;;20.60;67.79;101264.16;5025482;28;20480;-65
2022/06/23 06:39:30;;;;;;;9.85;6.13;;;;;;;20.70;67.41;101254.53;5024360;28;20021;-66
2022/06/23 06:42:05;;;;;;;11.80;6.30;;;;;;;20.86;66.69;101243.56;5025202;28;20091;-66
2022/06/23 06:44:31;;;;;;;12.52;6.57;;;;;;;20.71;67.11;101251.75;5025543;28;20018;-66
2022/06/23 06:46:57;;;;;;;13.68;6.55;;;;;;;20.73;67.00;101242.72;5023779;28;20116;-65
2022/06/23 06:49:24;;;;;;;13.10;6.43;;;;;;;20.74;66.71;101245.31;5022895;28;20100;-66
2022/06/23 06:51:51;;;;;;;9.95;6.15;;;;;;;20.57;66.68;101235.81;5023490;28;20025;-66
2022/06/23 06:54:19;;;;;;;17.15;7.53;;;;;;;20.67;66.51;101231.50;5022932;28;20067;-66
2022/06/23 06:56:48;;;;;;;10.57;6.15;;;;;;;20.92;66.49;101237.81;5009386;28;20084;-66
2022/06/23 06:59:32;;;;;;;10.07;6.15;;;;;;;21.05;65.44;101242.28;5002170;28;20036;-65
2022/06/23 07:02:01;;;;;;;10.85;7.00;;;;;;;20.89;66.51;101238.00;5003295;28;20026;-67
2022/06/23 07:04:32;;;;;;;10.43;6.50;;;;;;;21.12;66.18;101238.19;5004596;28;20101;-66
2022/06/23 07:07:01;;;;;;;15.23;5.97;;;;;;;21.36;64.91;101234.69;5004011;28;20331;-67
2022/06/23 07:09:26;;;;;;;14.40;6.63;;;;;;;21.49;64.88;101239.16;5005282;28;20024;-66
2022/06/23 07:12:03;;;;;;;11.93;7.32;;;;;;;21.63;64.11;101249.69;5024427;28;20125;-66
2022/06/23 07:14:59;;;;;;;10.25;6.38;;;;;;;21.75;64.69;101255.09;5024237;28;20034;-66
2022/06/23 07:17:29;;;;;;;9.88;6.53;;;;;;;21.87;63.90;101254.22;5023461;28;20372;-66
2022/06/23 07:20:21;;;;;;;12.05;6.30;;;;;;;22.12;63.16;101249.66;5024692;28;20033;-66
2022/06/23 07:22:53;;;;;;;9.85;5.93;;;;;;;22.05;62.94;101249.28;5017882;28;20033;-66
2022/06/23 07:25:22;;;;;;;10.88;6.32;;;;;;;22.27;62.33;101249.47;5023309;28;20029;-66
2022/06/23 07:27:53;;;;;;;13.32;5.80;;;;;;;22.38;62.13;101254.84;5023454;28;20033;-68
2022/06/23 07:30:30;;;;;;;16.77;6.03;;;;;;;22.41;61.98;101254.59;5021781;28;20083;-65
2022/06/23 07:33:22;;;;;;;12.55;5.68;;;;;;;22.56;61.93;101249.84;5022263;28;20113;-67
2022/06/23 07:36:06;;;;;;;12.88;6.45;;;;;;;22.65;61.00;101250.13;5020070;28;20068;-66
2022/06/23 07:38:37;;;;;;;10.68;6.32;;;;;;;22.67;61.56;101249.00;5021866;28;20112;-67
2022/06/23 07:41:21;;;;;;;10.85;6.47;;;;;;;22.70;61.50;101251.47;5022198;28;20046;-66
2022/06/23 07:43:52;;;;;;;8.00;6.13;;;;;;;22.77;61.40;101245.59;5022351;28;20018;-67
2022/06/23 07:46:17;;;;;;;9.88;6.20;;;;;;;22.93;60.85;101254.16;5021137;28;20092;-65
2022/06/23 07:48:44;;;;;;;11.20;6.15;;;;;;;22.91;60.35;101255.25;5023125;28;20076;-66
2022/06/23 07:51:10;;;;;;;12.20;6.43;;;;;;;23.03;59.84;101239.97;4993217;28;20932;-66
2022/06/23 07:53:41;;;;;;;11.60;6.53;;;;;;;23.16;59.77;101246.06;5001690;28;20072;-67
2022/06/23 07:56:08;;;;;;;10.52;6.20;;;;;;;23.32;59.33;101245.66;5010766;28;20033;-67
2022/06/23 07:58:36;;;;;;;14.60;6.80;;;;;;;23.12;59.36;101239.25;5021172;28;20034;-64
2022/06/23 08:01:14;;;;;;;7.25;5.65;;;;;;;23.13;59.39;101240.94;5020945;28;20055;-65
2022/06/23 08:04:08;;;;;;;15.98;6.68;;;;;;;23.39;59.16;101243.34;5022221;28;20029;-66
2022/06/23 08:06:34;;;;;;;9.88;5.80;;;;;;;23.58;59.05;101247.19;5021134;28;20171;-66
2022/06/23 08:09:04;;;;;;;13.70;5.97;;;;;;;23.50;59.28;101242.44;5023627;28;20116;-65
2022/06/23 08:14:23;;;;;;;12.30;6.53;;;;;;;23.77;58.77;101246.50;5004223;28;20460;-64
2022/06/23 08:16:51;;;;;;;12.50;5.70;;;;;;;23.78;59.02;101240.13;5012725;28;20086;-65
2022/06/23 08:19:36;;;;;;;13.43;6.45;;;;;;;24.01;58.69;101249.94;5020079;28;20080;-61
2022/06/23 08:22:24;;;;;;;7.85;5.93;;;;;;;24.16;58.46;101235.19;5012949;28;20161;-65
2022/06/23 08:24:52;;;;;;;11.00;6.90;;;;;;;24.38;57.82;101238.72;5022954;28;20036;-63
2022/06/23 08:27:19;;;;;;;13.32;6.10;;;;;;;24.56;57.79;101232.72;5021788;28;20030;-63
2022/06/23 08:29:57;;;;;;;14.13;7.43;;;;;;;24.66;58.02;101220.16;5023740;28;20029;-65
2022/06/23 08:32:23;;;;;;;14.60;5.22;;;;;;;24.83;57.91;101228.59;5027320;28;20083;-68
2022/06/23 08:35:11;;;;;;;11.02;5.70;;;;;;;24.90;57.30;101231.59;5027357;28;20033;-65
2022/06/23 08:38:32;;;;;;;10.13;6.63;;;;;;;24.92;57.90;101219.69;5023534;28;20065;-71
2022/06/23 08:41:05;;;;;;;14.27;7.40;;;;;;;24.84;57.13;101222.19;4997476;28;20041;-70
2022/06/23 08:43:50;;;;;;;9.48;6.00;;;;;;;24.95;57.03;101216.72;5025945;28;20029;-69
2022/06/23 08:46:37;;;;;;;10.45;6.75;;;;;;;25.09;56.64;101217.31;5023962;28;20481;-68
2022/06/23 08:49:05;;;;;;;14.65;6.15;;;;;;;25.14;56.85;101211.50;4998536;28;20607;-69
2022/06/23 08:51:51;;;;;;;9.07;5.38;;;;;;;25.35;56.10;101208.72;5007491;28;20076;-71
2022/06/23 08:54:39;;;;;;;8.55;6.05;;;;;;;25.17;55.63;101214.78;5018974;28;20021;-72
2022/06/23 08:57:26;;;;;;;16.67;7.38;;;;;;;25.32;55.28;101217.06;5025018;28;20317;-69
2022/06/23 09:00:06;;;;;;;8.02;5.32;;;;;;;25.44;55.15;101213.25;5008350;28;20708;-71
2022/06/23 09:02:35;;;;;;;12.70;6.95;;;;;;;25.50;55.40;101209.13;4988111;28;20033;-69
2022/06/23 09:05:02;;;;;;;;;;;;;;;25.89;55.61;101205.59;4987003;28;20529;-68
2022/06/23 09:08:06;;;;;;;11.95;7.63;;;;;;;25.78;55.47;101208.44;5025673;28;20323;-70
2022/06/23 09:11:06;;;;;;;14.98;7.63;;;;;;;25.81;55.53;101203.63;5023782;28;20040;-71
2022/06/23 09:13:57;;;;;;;18.70;7.75;;;;;;;26.05;55.72;101202.28;5006654;28;20122;-67
2022/06/23 09:16:34;;;;;;;11.15;5.40;;;;;;;26.07;54.09;101202.16;5019405;28;20063;-75
2022/06/23 09:19:33;;;;;;;14.82;8.02;;;;;;;26.01;54.74;101200.03;5029792;28;20422;-75
2022/06/23 09:22:14;;;;;;;12.30;7.30;;;;;;;26.03;56.29;101200.75;5027882;28;20105;-75
2022/06/23 09:24:46;;;;;;;14.68;6.75;;;;;;;26.14;56.27;101203.25;5029067;28;20044;-75
2022/06/23 09:27:25;;;;;;;14.98;8.45;;;;;;;26.19;55.60;101203.66;5026502;28;20025;-75
2022/06/23 09:30:00;;;;;;;14.82;9.73;;;;;;;26.10;56.66;101205.38;5028492;28;20083;-69
2022/06/23 09:32:44;;;;;;;11.82;7.15;;;;;;;26.35;56.12;101197.69;5028307;28;20033;-75
2022/06/23 09:35:42;;;;;;;20.25;9.18;;;;;;;26.52;56.33;101197.03;5030181;28;20025;-75
2022/06/23 09:38:38;;;;;;;20.15;9.25;;;;;;;26.60;55.74;101194.44;5010351;28;20037;-74
2022/06/23 09:41:21;;;;;;;15.82;9.63;;;;;;;26.48;55.96;101197.34;5029905;28;20044;-75
2022/06/23 09:44:09;;;;;;;13.43;8.20;;;;;;;26.66;56.15;101187.59;5021812;28;20109;-76
2022/06/23 09:46:53;;;;;;;21.60;9.45;;;;;;;27.05;56.45;101186.53;4984999;28;20045;-74
2022/06/23 09:49:39;;;;;;;17.63;8.80;;;;;;;27.09;56.77;101190.66;4991560;28;20434;-76
2022/06/23 09:52:11;;;;;;;17.23;9.23;;;;;;;27.18;55.70;101178.88;4972016;28;20030;-76
2022/06/23 09:54:37;;;;;;;14.07;7.78;;;;;;;27.49;55.31;101181.22;5024221;28;20480;-75
2022/06/23 09:57:29;;;;;;;13.55;7.90;;;;;;;27.38;55.53;101179.59;5028289;28;20043;-75
2022/06/23 10:00:13;;;;;;;19.52;7.82;;;;;;;27.52;55.55;101180.06;5027699;28;20164;-75
2022/06/23 10:03:12;;;;;;;16.45;8.93;;;;;;;27.53;56.30;101180.88;5027398;28;20025;-76
2022/06/23 10:05:58;;;;;;;17.58;8.23;;;;;;;27.70;55.93;101179.22;5026970;28;20087;-64
2022/06/23 10:08:39;;;;;;;17.40;7.82;;;;;;;27.83;56.12;101181.50;5024767;28;20029;-64
2022/06/23 10:11:25;;;;;;;14.07;8.40;;;;;;;27.76;56.81;101181.28;5024877;28;20068;-64
2022/06/23 10:14:20;;;;;;;16.33;7.90;;;;;;;27.79;55.93;101180.97;5025010;28;20066;-65
2022/06/23 10:16:52;;;;;;;20.05;9.05;;;;;;;28.04;55.55;101183.84;5025602;28;20044;-70
2022/06/23 10:19:35;;;;;;;14.93;8.50;;;;;;;28.22;55.43;101181.06;5026623;28;20037;-68
2022/06/23 10:22:20;;;;;;;19.10;8.07;;;;;;;28.48;55.90;101177.47;5025563;28;20361;-70
2022/06/23 10:24:55;;;;;;;13.43;7.05;;;;;;;28.66;55.41;101181.13;5026157;28;20439;-70
2022/06/23 10:27:57;;;;;;;13.55;7.75;;;;;;;28.93;54.32;101176.44;5016149;28;20066;-71
2022/06/23 10:30:37;;;;;;;11.50;7.97;;;;;;;29.14;54.67;101166.00;5006099;28;20167;-73
2022/06/23 10:33:11;;;;;;;15.15;7.68;;;;;;;28.91;55.35;101171.19;5011566;28;20030;-73
2022/06/23 10:35:44;;;;;;;15.23;7.03;;;;;;;29.03;52.84;101166.34;5025560;28;20021;-72
2022/06/23 10:38:14;;;;;;;12.68;7.00;;;;;;;29.21;53.85;101152.63;5020131;28;20018;-73
2022/06/23 10:41:06;;;;;;;16.23;6.53;;;;;;;29.08;54.22;101161.25;5005231;28;20038;-72
2022/06/23 10:43:51;;;;;;;16.92;6.63;;;;;;;29.26;53.50;101154.84;5005561;28;20116;-72
2022/06/23 10:46:24;;;;;;;12.50;6.60;;;;;;;29.34;54.38;101157.53;4995260;28;20022;-73
2022/06/23 10:49:17;;;;;;;10.88;5.25;;;;;;;29.31;53.71;101147.03;5003453;28;20038;-74
2022/06/23 10:51:57;;;;;;;13.95;4.90;;;;;;;29.46;51.94;101140.91;5016392;28;20108;-76
2022/06/23 10:54:47;;;;;;;16.67;6.47;;;;;;;29.49;52.64;101138.72;5005585;28;20742;-75
2022/06/23 10:58:00;;;;;;;11.05;5.70;;;;;;;29.79;51.79;101134.66;5006528;28;20028;-74
2022/06/23 11:00:34;;;;;;;15.13;5.70;;;;;;;29.80;51.27;101130.91;5021275;28;20555;-74
2022/06/23 11:03:09;;;;;;;10.43;6.45;;;;;;;29.90;51.01;101137.00;5024860;28;20040;-75
2022/06/23 11:06:03;;;;;;;13.23;6.05;;;;;;;29.74;50.54;101141.41;5025368;28;20116;-74
2022/06/23 11:08:47;;;;;;;14.10;5.65;;;;;;;29.75;51.81;101140.44;5003910;28;20440;-74
2022/06/23 11:11:35;;;;;;;12.60;6.20;;;;;;;30.08;51.88;101139.50;5003403;28;20038;-74
2022/06/23 11:14:03;;;;;;;;;;;;;;;30.31;49.45;101135.19;5003329;28;20137;-71
2022/06/23 11:16:35;;;;;;;;;;;;;;;30.38;49.35;101144.34;5005056;28;19913;-72
2022/06/23 11:19:20;;;;;;;11.20;5.13;;;;;;;30.57;48.81;101143.03;5006031;28;19963;-73
2022/06/23 11:22:04;;;;;;;14.30;6.47;;;;;;;30.61;48.91;101135.41;5002516;28;20022;-72
2022/06/23 11:24:44;;;;;;;12.98;5.45;;;;;;;30.58;50.72;101131.13;5003591;28;20030;-74
2022/06/23 11:27:32;;;;;;;11.13;4.80;;;;;;;30.86;48.23;101133.41;5001637;28;20104;-73
2022/06/23 11:30:03;;;;;;;7.97;4.85;;;;;;;30.78;48.81;101130.72;5001493;28;20126;-73
2022/06/23 11:33:02;;;;;;;12.50;6.10;;;;;;;30.96;48.96;101129.56;5001599;28;20058;-72
2022/06/23 11:35:33;;;;;;;16.85;5.63;;;;;;;30.89;49.27;101124.88;4996110;28;20034;-72
2022/06/23 11:38:23;;;;;;;13.10;4.80;;;;;;;31.19;49.12;101129.59;4993939;28;20384;-72
2022/06/23 11:41:23;;;;;;;14.98;5.97;;;;;;;30.62;48.96;101129.78;4997214;28;20033;-73
2022/06/23 11:44:09;;;;;;;13.18;5.15;;;;;;;30.94;48.17;101124.31;5011416;28;20056;-74
2022/06/23 11:46:38;;;;;;;8.70;4.55;;;;;;;31.04;47.76;101120.50;5023937;28;20423;-74
2022/06/23 11:49:12;;;;;;;18.45;5.70;;;;;;;30.86;49.16;101118.94;5022527;28;20033;-73
2022/06/23 11:51:59;;;;;;;10.57;5.38;;;;;;;30.92;49.04;101118.22;5023812;28;20094;-74
2022/06/23 11:54:49;;;;;;;13.77;5.30;;;;;;;31.57;47.08;101106.16;5017956;28;20460;-74
2022/06/23 11:57:38;;;;;;;9.93;4.82;;;;;;;31.88;46.82;101110.56;4990733;28;20040;-75
2022/06/23 12:00:14;;;;;;;11.90;5.03;;;;;;;31.97;46.30;101103.19;5022611;28;20261;-72
2022/06/23 12:03:01;;;;;;;13.63;4.97;;;;;;;32.16;46.77;101096.31;5017022;28;20384;-74
2022/06/23 12:05:47;;;;;;;13.57;4.68;;;;;;;31.86;45.89;101101.72;5002745;28;20033;-73
2022/06/23 12:08:31;;;;;;;16.55;5.15;;;;;;;31.74;46.50;101102.22;5000540;28;20032;-72
2022/06/23 12:10:57;;;;;;;11.82;5.38;;;;;;;31.99;46.21;101104.69;5023534;28;20026;-71
2022/06/23 12:13:24;;;;;;;11.80;5.65;;;;;;;32.45;45.40;101091.84;5020069;28;20089;-72
2022/06/23 12:15:51;;;;;;;11.60;4.70;;;;;;;32.26;44.68;101096.84;5024048;28;20025;-73